!!! Benutzen Sie für Ihre Flugvorbereitung die offiziellen Quellen !!!

Metar:

EDQM 271220Z 09006KT 050V140 CAVOK 23/08 Q1023

QNH: 1023
Temperatur: 23
Dew Point : 8

 

METAR (decoded)